Time;durP1;ratioP1;P1;durP2;ratioP2;P2;SDS_P1;SDS_P2;PMS_P1;PMS_P2;Temp;Humidity;BMP_temperature;BMP_pressure;BME280_temperature;BME280_humidity;BME280_pressure;Samples;Min_cycle;Max_cycle;Signal;HPM_P1;HPM_P2
2023/06/20 00:01:01;;;;;;;10.25;6.50;;;23.10;23.30;;;;;;5051192;28;20397;-72
2023/06/20 00:03:27;;;;;;;13.20;6.90;;;23.10;23.30;;;;;;5051950;28;20770;-72
2023/06/20 00:05:52;;;;;;;12.35;6.57;;;23.00;23.80;;;;;;5051786;28;20411;-72
2023/06/20 00:08:18;;;;;;;11.53;6.00;;;23.00;23.60;;;;;;5051859;28;20870;-71
2023/06/20 00:10:43;;;;;;;8.77;5.90;;;22.80;24.00;;;;;;5050291;28;20424;-72
2023/06/20 00:13:09;;;;;;;10.17;6.07;;;22.80;24.20;;;;;;5050166;28;20401;-71
2023/06/20 00:15:35;;;;;;;7.90;5.90;;;23.00;23.80;;;;;;5051709;28;20395;-71
2023/06/20 00:18:00;;;;;;;12.23;6.07;;;23.00;23.40;;;;;;5051436;28;20414;-71
2023/06/20 00:20:27;;;;;;;9.07;6.23;;;22.90;24.00;;;;;;5051944;28;20394;-72
2023/06/20 00:22:53;;;;;;;10.30;5.88;;;22.90;24.20;;;;;;5051573;28;20396;-71
2023/06/20 00:25:19;;;;;;;9.50;5.72;;;22.90;24.20;;;;;;5051868;28;20389;-71
2023/06/20 00:27:44;;;;;;;10.37;6.27;;;22.80;24.60;;;;;;5051621;28;20465;-72
2023/06/20 00:30:10;;;;;;;8.73;5.93;;;22.70;25.00;;;;;;5051745;28;20389;-71
2023/06/20 00:32:36;;;;;;;10.70;5.60;;;22.70;25.20;;;;;;5051615;28;20373;-72
2023/06/20 00:35:02;;;;;;;9.80;5.90;;;22.60;25.20;;;;;;5058897;28;20392;-72
2023/06/20 00:37:28;;;;;;;10.25;5.68;;;22.60;25.50;;;;;;5062132;28;20477;-72
2023/06/20 00:39:53;;;;;;;8.63;6.67;;;22.70;25.50;;;;;;5054732;28;20866;-71
2023/06/20 00:42:23;;;;;;;8.07;5.85;;;22.70;25.40;;;;;;5051570;28;20393;-71
2023/06/20 00:44:49;;;;;;;8.95;6.30;;;22.70;25.50;;;;;;5051603;28;20400;-71
2023/06/20 00:47:18;;;;;;;8.77;6.05;;;22.70;25.50;;;;;;5051739;28;20746;-71
2023/06/20 00:49:48;;;;;;;8.80;6.50;;;22.80;24.90;;;;;;5051569;28;20382;-70
2023/06/20 00:52:20;;;;;;;11.52;6.43;;;22.80;25.00;;;;;;5052052;28;20397;-72
2023/06/20 00:54:47;;;;;;;7.18;5.97;;;22.80;25.10;;;;;;5051437;28;20386;-73
2023/06/20 00:57:17;;;;;;;7.65;5.80;;;22.90;24.70;;;;;;5049612;28;20407;-70
2023/06/20 00:59:50;;;;;;;8.82;5.90;;;22.90;24.80;;;;;;5050537;28;20961;-71
2023/06/20 01:02:16;;;;;;;9.43;6.50;;;22.90;24.70;;;;;;5048884;28;20409;-72
2023/06/20 01:04:44;;;;;;;11.27;6.60;;;22.90;24.70;;;;;;5039721;28;20778;-71
2023/06/20 01:07:25;;;;;;;14.73;9.40;;;22.90;25.50;;;;;;5050967;28;20395;-73
2023/06/20 01:09:51;;;;;;;25.83;18.63;;;22.90;26.60;;;;;;5050213;28;20432;-72
2023/06/20 01:12:54;;;;;;;16.73;10.23;;;22.90;26.90;;;;;;5049182;28;20425;-71
2023/06/20 01:15:41;;;;;;;15.50;6.87;;;22.90;27.30;;;;;;5050841;28;20925;-72
2023/06/20 01:18:16;;;;;;;14.63;7.68;;;22.90;27.50;;;;;;5032131;28;20815;-75
2023/06/20 01:20:49;;;;;;;11.75;7.10;;;22.90;28.30;;;;;;5050195;28;20403;-74
2023/06/20 01:23:25;;;;;;;13.20;7.57;;;22.80;28.40;;;;;;5050209;28;20401;-75
2023/06/20 01:26:02;;;;;;;12.23;7.32;;;22.80;29.10;;;;;;5049232;28;20415;-75
2023/06/20 01:28:43;;;;;;;10.03;7.00;;;22.70;29.90;;;;;;5050264;28;20417;-74
2023/06/20 01:31:15;;;;;;;12.07;7.10;;;22.70;30.30;;;;;;5050282;28;20396;-74
2023/06/20 01:33:53;;;;;;;10.93;7.45;;;22.60;30.90;;;;;;5050443;28;20749;-75
2023/06/20 01:36:21;;;;;;;12.38;7.65;;;22.60;31.80;;;;;;5050782;28;20811;-75
2023/06/20 01:38:54;;;;;;;10.77;7.03;;;22.50;33.00;;;;;;5050458;28;20492;-75
2023/06/20 01:41:22;;;;;;;8.57;6.90;;;22.60;33.50;;;;;;5050859;28;20405;-76
2023/06/20 01:43:49;;;;;;;14.60;6.22;;;22.50;33.90;;;;;;5050813;28;20797;-75
2023/06/20 01:46:17;;;;;;;8.25;6.50;;;22.40;34.80;;;;;;5049886;28;20389;-74
2023/06/20 01:48:44;;;;;;;10.48;6.60;;;22.40;34.90;;;;;;5050894;28;20438;-75
2023/06/20 01:51:10;;;;;;;8.90;6.50;;;22.30;36.40;;;;;;5051096;28;20702;-75
2023/06/20 01:53:38;;;;;;;10.50;6.72;;;22.30;35.90;;;;;;5049639;28;20394;-75
2023/06/20 01:56:06;;;;;;;12.63;6.60;;;22.30;35.90;;;;;;5051384;28;20390;-75
2023/06/20 01:58:33;;;;;;;13.98;6.88;;;22.20;35.90;;;;;;5051108;28;20397;-75
2023/06/20 02:00:59;;;;;;;13.93;6.67;;;22.20;35.70;;;;;;5051309;28;20448;-75
2023/06/20 02:03:27;;;;;;;10.07;6.97;;;22.20;36.40;;;;;;5052477;28;20751;-75
2023/06/20 02:05:59;;;;;;;12.95;6.72;;;22.20;36.40;;;;;;5050149;28;20397;-75
2023/06/20 02:08:25;;;;;;;16.27;6.53;;;22.20;37.10;;;;;;5051213;28;20389;-75
2023/06/20 02:10:52;;;;;;;10.45;7.40;;;22.10;36.70;;;;;;5050771;28;20389;-74
2023/06/20 02:13:21;;;;;;;12.43;7.10;;;22.20;36.10;;;;;;5050886;28;20397;-74
2023/06/20 02:15:50;;;;;;;15.32;7.60;;;22.20;36.30;;;;;;5051932;28;20393;-75
2023/06/20 02:18:16;;;;;;;16.67;10.20;;;22.20;36.20;;;;;;5055919;28;20405;-75
2023/06/20 02:20:41;;;;;;;9.35;7.68;;;22.10;36.30;;;;;;5055455;28;20392;-74
2023/06/20 02:23:09;;;;;;;9.90;6.93;;;22.20;36.40;;;;;;5051654;28;20862;-74
2023/06/20 02:25:38;;;;;;;9.50;6.97;;;22.20;36.50;;;;;;5054624;28;20461;-75
2023/06/20 02:28:05;;;;;;;10.85;7.00;;;22.20;36.60;;;;;;5054506;28;20469;-75
2023/06/20 02:30:31;;;;;;;12.90;6.80;;;22.20;37.00;;;;;;5053762;28;20890;-75
2023/06/20 02:32:59;;;;;;;9.17;6.97;;;22.20;37.40;;;;;;5054094;28;20396;-75
2023/06/20 02:35:25;;;;;;;14.27;6.73;;;22.20;37.70;;;;;;5054226;28;20754;-75
2023/06/20 02:37:54;;;;;;;11.17;6.70;;;22.10;38.10;;;;;;5054099;28;20381;-75
2023/06/20 02:40:23;;;;;;;10.85;6.50;;;22.10;39.00;;;;;;5053992;28;20420;-75
2023/06/20 02:42:49;;;;;;;14.53;7.23;;;22.10;38.80;;;;;;5052322;28;20386;-74
2023/06/20 02:45:15;;;;;;;15.23;7.40;;;22.00;39.20;;;;;;5053879;28;20435;-73
2023/06/20 02:47:46;;;;;;;11.87;7.20;;;22.00;39.00;;;;;;5053277;28;20377;-75
2023/06/20 02:50:26;;;;;;;12.10;8.00;;;22.00;39.90;;;;;;5053390;28;20384;-73
2023/06/20 02:53:18;;;;;;;10.50;7.07;;;22.00;41.00;;;;;;5053126;28;20463;-75
2023/06/20 02:55:55;;;;;;;12.82;6.90;;;22.00;40.20;;;;;;5053487;28;20370;-74
2023/06/20 02:58:24;;;;;;;9.95;7.78;;;22.00;40.60;;;;;;5053624;28;20905;-75
2023/06/20 03:00:53;;;;;;;13.48;7.65;;;22.00;41.50;;;;;;5051959;28;20389;-74
2023/06/20 03:03:35;;;;;;;11.65;7.15;;;22.00;42.00;;;;;;5053141;28;20378;-74
2023/06/20 03:06:02;;;;;;;14.48;7.50;;;21.90;41.90;;;;;;5053265;28;20382;-74
2023/06/20 03:08:30;;;;;;;12.53;7.63;;;21.80;42.60;;;;;;5053244;28;20793;-74
2023/06/20 03:10:57;;;;;;;17.90;7.82;;;21.80;43.40;;;;;;5053208;28;20469;-74
2023/06/20 03:13:24;;;;;;;13.75;8.13;;;21.70;43.70;;;;;;5053559;28;20404;-75
2023/06/20 03:15:52;;;;;;;11.73;7.55;;;21.70;44.50;;;;;;5052887;28;20925;-74
2023/06/20 03:18:19;;;;;;;13.38;8.00;;;21.70;45.50;;;;;;5052812;28;20451;-74
2023/06/20 03:20:45;;;;;;;20.58;8.25;;;21.70;46.40;;;;;;5052882;28;20870;-74
2023/06/20 03:23:11;;;;;;;13.88;7.95;;;21.70;46.40;;;;;;5052708;28;20388;-75
2023/06/20 03:25:37;;;;;;;13.25;7.20;;;21.70;46.00;;;;;;5051819;28;20472;-74
2023/06/20 03:28:03;;;;;;;15.60;7.72;;;21.70;45.90;;;;;;5052906;28;20436;-76
2023/06/20 03:30:28;;;;;;;18.98;8.15;;;21.70;45.20;;;;;;5052779;28;20428;-75
2023/06/20 03:32:54;;;;;;;14.07;8.40;;;21.70;45.70;;;;;;5052424;28;20392;-75
2023/06/20 03:35:19;;;;;;;13.55;7.88;;;21.80;45.90;;;;;;5051944;28;20393;-74
2023/06/20 03:37:45;;;;;;;12.50;7.70;;;21.70;47.00;;;;;;5052597;28;20446;-75
2023/06/20 03:40:11;;;;;;;10.98;7.50;;;21.70;48.20;;;;;;5052468;28;20424;-75
2023/06/20 03:42:37;;;;;;;12.43;7.95;;;21.70;47.90;;;;;;5052141;28;20392;-75
2023/06/20 03:45:02;;;;;;;10.60;7.45;;;21.60;49.40;;;;;;5052691;28;20373;-75
2023/06/20 03:47:28;;;;;;;17.15;8.30;;;21.60;50.70;;;;;;5052540;28;20386;-75
2023/06/20 03:49:54;;;;;;;12.80;7.87;;;21.60;52.80;;;;;;5052208;28;20878;-74
2023/06/20 03:52:19;;;;;;;11.30;8.43;;;21.60;53.10;;;;;;5052139;28;20395;-74
2023/06/20 03:54:45;;;;;;;16.80;8.40;;;21.60;53.80;;;;;;5052152;28;20436;-74
2023/06/20 03:57:10;;;;;;;13.67;8.17;;;21.50;55.90;;;;;;5052115;28;20396;-75
2023/06/20 03:59:36;;;;;;;14.60;8.43;;;21.60;57.10;;;;;;5052285;28;20508;-75
2023/06/20 04:02:01;;;;;;;15.70;8.80;;;21.60;58.70;;;;;;5052664;28;20385;-74
2023/06/20 04:04:29;;;;;;;10.00;7.85;;;21.60;61.50;;;;;;5052869;28;20901;-76
2023/06/20 04:06:55;;;;;;;15.77;8.70;;;21.60;59.90;;;;;;5054073;28;20397;-74
2023/06/20 04:09:25;;;;;;;26.52;10.75;;;21.60;61.20;;;;;;5052282;28;20420;-75
2023/06/20 04:11:50;;;;;;;15.25;8.80;;;21.60;61.60;;;;;;5051932;28;20417;-74
2023/06/20 04:14:16;;;;;;;12.70;8.70;;;21.50;63.30;;;;;;5052224;28;20405;-74
2023/06/20 04:16:41;;;;;;;10.85;8.43;;;21.50;63.10;;;;;;5052532;28;20822;-75
2023/06/20 04:19:07;;;;;;;14.70;9.50;;;21.50;63.00;;;;;;5052339;28;20409;-74
2023/06/20 04:21:32;;;;;;;13.87;8.73;;;21.50;63.30;;;;;;5052241;28;20389;-74
2023/06/20 04:23:58;;;;;;;15.10;8.85;;;21.50;63.80;;;;;;5052277;28;20775;-74
2023/06/20 04:26:24;;;;;;;12.10;8.85;;;21.50;64.30;;;;;;5052950;28;20397;-74
2023/06/20 04:28:50;;;;;;;20.57;9.80;;;21.60;62.60;;;;;;5051358;28;20408;-75
2023/06/20 04:31:15;;;;;;;15.00;9.70;;;21.60;62.40;;;;;;5054745;28;20750;-76
2023/06/20 04:33:43;;;;;;;11.07;8.10;;;21.60;64.10;;;;;;5057082;28;20409;-73
2023/06/20 04:36:13;;;;;;;12.90;8.23;;;21.60;63.60;;;;;;5057036;28;20497;-75
2023/06/20 04:38:39;;;;;;;14.13;8.55;;;21.60;63.80;;;;;;5053398;28;20400;-74
2023/06/20 04:41:04;;;;;;;11.15;8.32;;;21.60;64.70;;;;;;5053412;28;20388;-74
2023/06/20 04:43:30;;;;;;;13.83;8.27;;;21.50;64.70;;;;;;5052690;28;20419;-75
2023/06/20 04:45:56;;;;;;;14.02;8.00;;;21.50;64.80;;;;;;5051454;28;20408;-74
2023/06/20 04:48:27;;;;;;;20.33;8.23;;;21.60;64.60;;;;;;5049963;28;20783;-74
2023/06/20 04:50:55;;;;;;;9.63;7.05;;;21.70;61.60;;;;;;5051283;28;20480;-74
2023/06/20 04:53:22;;;;;;;10.88;7.40;;;21.70;58.50;;;;;;5051763;28;20386;-74
2023/06/20 04:55:48;;;;;;;13.60;7.15;;;21.70;58.80;;;;;;5051489;28;20417;-75
2023/06/20 04:58:14;;;;;;;12.57;7.43;;;21.70;59.30;;;;;;5051157;28;20405;-75
2023/06/20 05:00:40;;;;;;;9.32;6.85;;;21.70;59.40;;;;;;5051042;28;20785;-75
2023/06/20 05:03:05;;;;;;;12.95;7.00;;;21.80;56.60;;;;;;5051264;28;20381;-75
2023/06/20 05:05:31;;;;;;;10.37;6.73;;;21.70;56.80;;;;;;5049914;28;20393;-74
2023/06/20 05:07:57;;;;;;;11.43;7.00;;;21.80;57.10;;;;;;5051043;28;20846;-76
2023/06/20 05:10:23;;;;;;;23.27;7.40;;;21.90;56.30;;;;;;5049838;28;20394;-74
2023/06/20 05:12:49;;;;;;;13.65;7.68;;;21.90;56.10;;;;;;5050569;28;20389;-75
2023/06/20 05:15:14;;;;;;;12.35;7.50;;;22.00;55.80;;;;;;5051015;28;20719;-75
2023/06/20 05:17:40;;;;;;;10.20;7.20;;;21.90;56.20;;;;;;5049524;28;20400;-73
2023/06/20 05:20:06;;;;;;;13.07;7.65;;;21.90;56.50;;;;;;5050923;28;20486;-75
2023/06/20 05:22:33;;;;;;;13.80;8.00;;;21.90;56.70;;;;;;5049220;28;20504;-75
2023/06/20 05:24:59;;;;;;;14.82;7.90;;;21.80;56.80;;;;;;5051137;28;20389;-73
2023/06/20 05:27:24;;;;;;;8.43;7.50;;;21.90;59.50;;;;;;5052446;28;20389;-75
2023/06/20 05:29:50;;;;;;;12.20;8.07;;;21.90;59.80;;;;;;5053826;28;20704;-75
2023/06/20 05:32:16;;;;;;;10.27;8.13;;;21.90;63.00;;;;;;5053604;28;20390;-76
2023/06/20 05:34:41;;;;;;;15.02;8.10;;;22.00;63.60;;;;;;5050937;28;20429;-75
2023/06/20 05:37:07;;;;;;;13.67;8.07;;;22.10;62.00;;;;;;5050855;28;20466;-74
2023/06/20 05:39:32;;;;;;;11.95;8.05;;;22.20;59.80;;;;;;5051191;28;20408;-75
2023/06/20 05:41:58;;;;;;;10.47;7.80;;;22.20;59.40;;;;;;5050760;28;20976;-75
2023/06/20 05:44:23;;;;;;;14.43;8.00;;;22.40;57.20;;;;;;5050980;28;20393;-74
2023/06/20 05:46:49;;;;;;;16.05;9.38;;;22.50;55.30;;;;;;5051001;28;20389;-73
2023/06/20 05:49:15;;;;;;;16.70;8.60;;;22.50;56.30;;;;;;5050597;28;20388;-74
2023/06/20 05:51:44;;;;;;;10.95;8.15;;;22.60;55.70;;;;;;5050288;28;20479;-75
2023/06/20 05:54:10;;;;;;;17.08;8.43;;;22.80;53.80;;;;;;5050574;28;20479;-74
2023/06/20 05:56:35;;;;;;;12.40;8.60;;;22.90;53.00;;;;;;5050048;28;20703;-75
2023/06/20 05:59:01;;;;;;;16.48;9.15;;;23.00;51.10;;;;;;5051794;28;20443;-74
2023/06/20 06:01:27;;;;;;;18.07;8.80;;;23.30;48.80;;;;;;5054822;28;20475;-74
2023/06/20 06:03:52;;;;;;;13.25;8.75;;;23.50;48.00;;;;;;5054401;28;20393;-76
2023/06/20 06:06:18;;;;;;;14.63;9.23;;;23.70;47.00;;;;;;5054578;28;20889;-75
2023/06/20 06:08:43;;;;;;;14.60;9.77;;;24.00;43.90;;;;;;5054785;28;20500;-74
2023/06/20 06:11:09;;;;;;;12.53;7.77;;;24.10;43.40;;;;;;5054397;28;20419;-76
2023/06/20 06:13:35;;;;;;;12.83;8.50;;;24.30;41.70;;;;;;5054211;28;20861;-75
2023/06/20 06:16:00;;;;;;;12.77;9.05;;;24.50;39.70;;;;;;5054710;28;20442;-75
2023/06/20 06:18:26;;;;;;;10.80;8.70;;;24.40;39.50;;;;;;5054653;28;20409;-75
2023/06/20 06:20:52;;;;;;;13.05;9.07;;;24.30;40.70;;;;;;5054028;28;20389;-76
2023/06/20 06:23:17;;;;;;;11.97;9.00;;;24.20;41.70;;;;;;5054152;28;20381;-75
2023/06/20 06:25:45;;;;;;;10.70;8.68;;;24.30;41.70;;;;;;5054806;28;20591;-75
2023/06/20 06:28:11;;;;;;;13.50;8.90;;;24.30;41.50;;;;;;5054472;28;20389;-75
2023/06/20 06:30:37;;;;;;;13.88;8.60;;;24.40;39.80;;;;;;5054178;28;20444;-74
2023/06/20 06:33:07;;;;;;;13.10;8.60;;;24.40;40.20;;;;;;5053267;28;20802;-75
2023/06/20 06:35:33;;;;;;;11.70;8.40;;;24.40;40.50;;;;;;5053858;28;20396;-73
2023/06/20 06:37:58;;;;;;;11.55;8.50;;;24.50;41.50;;;;;;5053590;28;20472;-73
2023/06/20 06:40:24;;;;;;;12.48;8.80;;;24.50;39.70;;;;;;5053640;28;20464;-75
2023/06/20 06:42:51;;;;;;;13.85;8.50;;;24.50;40.00;;;;;;5053174;28;20388;-74
2023/06/20 06:45:16;;;;;;;11.40;8.50;;;24.40;38.80;;;;;;5053977;28;20519;-74
2023/06/20 06:47:42;;;;;;;13.50;8.70;;;24.40;39.60;;;;;;5054018;28;20417;-73
2023/06/20 06:50:08;;;;;;;11.90;8.60;;;24.50;39.10;;;;;;5053714;28;20385;-73
2023/06/20 06:52:36;;;;;;;11.02;8.32;;;24.50;38.10;;;;;;5053619;28;20846;-74
2023/06/20 06:55:02;;;;;;;10.35;8.35;;;24.50;38.20;;;;;;5053865;28;20779;-74
2023/06/20 06:57:28;;;;;;;9.45;7.60;;;24.60;37.70;;;;;;5053737;28;20381;-76
2023/06/20 06:59:53;;;;;;;14.27;8.27;;;24.60;37.20;;;;;;5053459;28;20409;-74
2023/06/20 07:02:20;;;;;;;10.60;8.10;;;24.60;37.20;;;;;;5053309;28;20762;-75
2023/06/20 07:04:46;;;;;;;12.13;8.20;;;24.70;37.20;;;;;;5053121;28;20464;-75
2023/06/20 07:07:11;;;;;;;13.00;7.47;;;24.80;36.20;;;;;;5053539;28;20531;-75
2023/06/20 07:09:37;;;;;;;13.73;8.23;;;24.80;36.10;;;;;;5052893;28;20388;-74
2023/06/20 07:12:06;;;;;;;9.33;7.70;;;24.80;35.70;;;;;;5052742;28;20456;-74
2023/06/20 07:14:33;;;;;;;8.68;7.00;;;24.90;35.10;;;;;;5053805;28;20393;-75
2023/06/20 07:16:59;;;;;;;10.17;7.70;;;24.80;35.70;;;;;;5053199;28;20397;-75
2023/06/20 07:19:25;;;;;;;9.10;7.88;;;24.90;35.10;;;;;;5053370;28;20568;-75
2023/06/20 07:21:50;;;;;;;14.80;8.40;;;24.90;35.10;;;;;;5051773;28;20393;-74
2023/06/20 07:24:16;;;;;;;12.17;7.90;;;24.90;34.90;;;;;;5053016;28;20465;-75
2023/06/20 07:26:41;;;;;;;15.30;8.07;;;24.90;35.70;;;;;;5052833;28;20409;-75
2023/06/20 07:29:07;;;;;;;14.70;8.07;;;25.00;34.80;;;;;;5052860;28;20397;-75
2023/06/20 07:31:32;;;;;;;11.25;7.07;;;25.10;33.80;;;;;;5053596;28;20400;-75
2023/06/20 07:33:58;;;;;;;8.43;6.90;;;25.20;33.60;;;;;;5056336;28;20397;-75
2023/06/20 07:36:23;;;;;;;8.90;7.30;;;25.20;31.50;;;;;;5066904;28;20377;-73
2023/06/20 07:38:49;;;;;;;8.77;7.10;;;25.10;31.30;;;;;;5064485;28;20504;-75
2023/06/20 07:41:14;;;;;;;12.80;8.20;;;25.10;31.70;;;;;;5056146;28;20381;-74
2023/06/20 07:43:40;;;;;;;10.50;7.72;;;25.20;32.00;;;;;;5053198;28;20435;-74
2023/06/20 07:46:06;;;;;;;11.88;7.38;;;25.20;31.70;;;;;;5053600;28;20392;-77
2023/06/20 07:48:31;;;;;;;9.60;7.10;;;25.30;31.60;;;;;;5053442;28;20386;-74
2023/06/20 07:50:57;;;;;;;9.50;6.63;;;25.50;29.60;;;;;;5053132;28;20581;-75
2023/06/20 07:53:23;;;;;;;13.50;6.60;;;25.60;28.80;;;;;;5053866;28;20381;-75
2023/06/20 07:55:49;;;;;;;10.63;7.20;;;25.70;28.20;;;;;;5052878;28;20386;-75
2023/06/20 07:58:14;;;;;;;9.25;6.22;;;25.80;27.50;;;;;;5052554;28;20409;-76
2023/06/20 08:00:40;;;;;;;8.73;6.70;;;25.80;27.60;;;;;;5052416;28;20426;-74
2023/06/20 08:03:07;;;;;;;8.45;6.70;;;25.80;27.20;;;;;;5052026;28;20431;-73
2023/06/20 08:05:32;;;;;;;8.57;6.28;;;25.80;27.50;;;;;;5052141;28;20450;-75
2023/06/20 08:07:58;;;;;;;8.05;6.22;;;25.90;26.90;;;;;;5052451;28;20850;-74
2023/06/20 08:10:23;;;;;;;9.07;6.80;;;26.00;27.10;;;;;;5052091;28;20386;-74
2023/06/20 08:12:49;;;;;;;8.13;5.57;;;26.10;26.60;;;;;;5051575;28;20755;-76
2023/06/20 08:15:14;;;;;;;7.93;6.25;;;26.30;25.30;;;;;;5052072;28;20587;-75
2023/06/20 08:17:40;;;;;;;6.83;6.10;;;26.40;25.00;;;;;;5053639;28;20384;-75
2023/06/20 08:20:08;;;;;;;11.75;7.32;;;26.40;25.30;;;;;;5054336;28;20405;-75
2023/06/20 08:22:35;;;;;;;10.88;6.05;;;26.40;24.60;;;;;;5053086;28;20874;-75
2023/06/20 08:25:00;;;;;;;8.05;6.07;;;26.40;24.20;;;;;;5054027;28;20811;-73
2023/06/20 08:27:26;;;;;;;11.02;6.85;;;26.60;24.50;;;;;;5053536;28;20390;-75
2023/06/20 08:29:52;;;;;;;10.50;6.73;;;26.70;24.30;;;;;;5053412;28;20818;-75
2023/06/20 08:32:17;;;;;;;10.52;7.30;;;26.80;24.00;;;;;;5053649;28;20731;-74
2023/06/20 08:34:43;;;;;;;9.47;7.00;;;26.80;23.50;;;;;;5052731;28;20469;-75
2023/06/20 08:37:08;;;;;;;13.50;6.20;;;26.80;23.50;;;;;;5053686;28;20383;-75
2023/06/20 08:39:35;;;;;;;9.30;7.20;;;26.80;23.70;;;;;;5052780;28;20397;-75
2023/06/20 08:42:01;;;;;;;13.10;6.30;;;26.70;23.60;;;;;;5055071;28;20380;-75
2023/06/20 08:44:26;;;;;;;11.00;7.20;;;27.00;22.70;;;;;;5054894;28;20397;-75
2023/06/20 08:46:57;;;;;;;11.05;6.53;;;26.90;22.70;;;;;;5054572;28;20382;-74
2023/06/20 08:49:24;;;;;;;12.40;7.07;;;27.00;23.30;;;;;;5053811;28;20462;-75
2023/06/20 08:51:52;;;;;;;8.68;5.88;;;27.00;22.80;;;;;;5052769;28;20754;-76
2023/06/20 08:54:20;;;;;;;7.03;6.18;;;27.10;22.50;;;;;;5050951;28;20941;-75
2023/06/20 08:56:47;;;;;;;7.18;6.18;;;27.20;21.90;;;;;;5052446;28;20724;-74
2023/06/20 08:59:13;;;;;;;6.72;5.88;;;27.30;21.10;;;;;;5053110;28;20421;-74
2023/06/20 09:01:40;;;;;;;7.38;5.80;;;27.50;21.10;;;;;;5052254;28;22438;-75
2023/06/20 09:04:06;;;;;;;6.55;5.43;;;27.60;20.00;;;;;;5055263;28;20386;-75
2023/06/20 09:06:39;;;;;;;7.60;5.60;;;27.60;19.40;;;;;;5066118;28;20791;-75
2023/06/20 09:09:17;;;;;;;6.38;5.60;;;27.70;19.40;;;;;;5070352;28;20384;-74
2023/06/20 09:11:57;;;;;;;7.05;5.65;;;27.80;19.50;;;;;;5069298;28;20397;-74
2023/06/20 09:14:29;;;;;;;8.25;5.93;;;27.80;19.30;;;;;;5072005;28;20405;-76
2023/06/20 09:16:59;;;;;;;6.47;4.83;;;27.90;18.80;;;;;;5065219;28;20382;-76
2023/06/20 09:19:25;;;;;;;6.55;5.65;;;27.80;18.00;;;;;;5053779;28;20427;-76
2023/06/20 09:21:50;;;;;;;8.07;5.60;;;27.70;18.80;;;;;;5054393;28;20385;-76
2023/06/20 09:24:19;;;;;;;6.77;5.30;;;27.80;19.00;;;;;;5053568;28;20388;-75
2023/06/20 09:26:47;;;;;;;7.70;5.32;;;27.90;18.40;;;;;;5054064;28;20460;-75
2023/06/20 09:29:15;;;;;;;8.80;5.50;;;27.90;18.20;;;;;;5052768;28;20476;-75
2023/06/20 09:31:41;;;;;;;7.65;5.93;;;28.00;18.30;;;;;;5054603;28;20610;-76
2023/06/20 09:34:15;;;;;;;10.23;6.10;;;28.00;19.10;;;;;;5053900;28;20467;-75
2023/06/20 09:36:41;;;;;;;9.75;5.70;;;27.90;18.80;;;;;;5054661;28;20411;-75
2023/06/20 09:39:17;;;;;;;8.20;6.80;;;28.00;19.60;;;;;;5054350;28;20917;-76
2023/06/20 09:41:44;;;;;;;9.45;6.50;;;28.10;19.00;;;;;;5053079;28;20393;-75
2023/06/20 09:44:11;;;;;;;7.15;5.90;;;28.10;19.20;;;;;;5054570;28;20473;-76
2023/06/20 09:46:36;;;;;;;6.60;5.90;;;28.00;18.90;;;;;;5055708;28;20385;-77
2023/06/20 09:49:04;;;;;;;9.37;5.77;;;28.00;19.20;;;;;;5053603;28;20476;-77
2023/06/20 09:51:37;;;;;;;10.50;6.40;;;28.00;18.90;;;;;;5053718;28;20469;-77
2023/06/20 09:54:09;;;;;;;8.30;5.80;;;28.10;18.40;;;;;;5053931;28;20874;-75
2023/06/20 09:56:49;;;;;;;10.55;6.00;;;28.20;18.50;;;;;;5053093;28;20451;-75
2023/06/20 09:59:16;;;;;;;11.63;6.60;;;28.30;18.40;;;;;;5053558;28;20433;-75
2023/06/20 10:01:42;;;;;;;6.75;6.15;;;28.50;18.30;;;;;;5053980;28;20404;-76
2023/06/20 10:04:08;;;;;;;9.43;7.00;;;28.90;17.60;;;;;;5053801;28;20373;-75
2023/06/20 10:06:37;;;;;;;7.40;6.60;;;29.00;17.40;;;;;;5055535;28;20829;-78
2023/06/20 10:09:06;;;;;;;7.60;5.78;;;29.00;17.70;;;;;;5054273;28;20411;-77
2023/06/20 10:11:32;;;;;;;7.75;6.10;;;29.00;16.80;;;;;;5053945;28;20845;-76
2023/06/20 10:13:58;;;;;;;9.85;6.32;;;29.20;16.60;;;;;;5053749;28;20444;-76
2023/06/20 10:16:28;;;;;;;6.50;5.60;;;29.30;15.90;;;;;;5053684;28;20389;-75
2023/06/20 10:18:53;;;;;;;7.33;5.90;;;29.10;16.50;;;;;;5053665;28;20413;-76
2023/06/20 10:21:52;;;;;;;7.70;5.97;;;29.10;16.40;;;;;;5057991;28;20441;-76
2023/06/20 10:24:17;;;;;;;7.45;6.03;;;29.20;15.90;;;;;;5060344;28;20459;-75
2023/06/20 10:26:43;;;;;;;7.70;6.20;;;29.50;15.60;;;;;;5059306;28;20382;-76
2023/06/20 10:29:08;;;;;;;13.80;6.68;;;29.50;15.50;;;;;;5053739;28;20423;-75
2023/06/20 10:31:53;;;;;;;9.97;6.30;;;29.60;15.40;;;;;;5057180;28;20386;-75
2023/06/20 10:34:31;;;;;;;8.17;6.80;;;29.60;15.00;;;;;;5057237;28;20447;-75
2023/06/20 10:37:33;;;;;;;7.80;6.50;;;29.60;15.00;;;;;;5053622;28;20419;-75
2023/06/20 10:39:58;;;;;;;7.90;6.20;;;29.60;15.10;;;;;;5053243;28;20401;-77
2023/06/20 10:42:43;;;;;;;7.60;5.60;;;29.70;14.80;;;;;;5052917;28;20386;-76
2023/06/20 10:45:19;;;;;;;8.02;5.90;;;30.10;14.30;;;;;;5054053;28;20460;-76
2023/06/20 10:47:45;;;;;;;7.28;6.00;;;30.30;13.90;;;;;;5058880;28;20389;-77
2023/06/20 10:50:11;;;;;;;8.55;6.20;;;30.40;13.70;;;;;;5056595;28;20496;-77
2023/06/20 10:52:37;;;;;;;7.35;6.55;;;30.30;13.70;;;;;;5054485;28;20404;-75
2023/06/20 10:55:07;;;;;;;9.70;5.10;;;30.10;14.20;;;;;;5057276;28;20393;-77
2023/06/20 10:57:35;;;;;;;5.70;5.20;;;30.10;13.60;;;;;;5056440;28;20763;-76
2023/06/20 11:00:08;;;;;;;7.97;5.60;;;30.10;13.20;;;;;;5058304;28;20413;-76
2023/06/20 11:02:34;;;;;;;5.88;5.28;;;30.20;13.20;;;;;;5055538;28;21017;-75
2023/06/20 11:05:01;;;;;;;6.13;5.53;;;30.20;12.70;;;;;;5055500;28;20749;-76
2023/06/20 11:07:27;;;;;;;5.77;5.17;;;30.30;12.70;;;;;;5056626;28;20472;-77
2023/06/20 11:09:52;;;;;;;7.07;5.32;;;30.40;12.50;;;;;;5056898;28;20427;-76
2023/06/20 11:12:18;;;;;;;5.70;5.20;;;30.40;12.30;;;;;;5055596;28;20973;-77
2023/06/20 11:14:44;;;;;;;7.77;5.80;;;30.50;12.40;;;;;;5056238;28;20484;-77
2023/06/20 11:17:09;;;;;;;6.78;5.60;;;30.60;12.20;;;;;;5055927;28;20459;-76
2023/06/20 11:19:35;;;;;;;6.33;5.50;;;30.70;12.00;;;;;;5055439;28;20457;-75
2023/06/20 11:22:01;;;;;;;6.30;5.70;;;30.70;12.10;;;;;;5055740;28;20882;-76
2023/06/20 11:24:28;;;;;;;7.43;5.60;;;30.90;11.60;;;;;;5056041;28;20378;-77
2023/06/20 11:26:54;;;;;;;6.38;5.70;;;31.10;11.70;;;;;;5055238;28;20398;-75
2023/06/20 11:29:20;;;;;;;5.60;5.10;;;31.30;10.80;;;;;;5055046;28;20388;-75
2023/06/20 11:31:45;;;;;;;7.10;5.60;;;31.30;10.90;;;;;;5053845;28;20412;-74
2023/06/20 11:34:12;;;;;;;7.17;5.60;;;31.40;10.60;;;;;;5055700;28;20449;-75
2023/06/20 11:36:39;;;;;;;6.18;5.55;;;31.30;10.90;;;;;;5053556;28;20396;-77
2023/06/20 11:39:09;;;;;;;9.77;5.03;;;31.40;10.50;;;;;;5055604;28;20448;-77
2023/06/20 11:41:35;;;;;;;8.77;5.40;;;31.50;10.10;;;;;;5054967;28;20500;-72
2023/06/20 11:44:02;;;;;;;5.60;5.10;;;31.90;9.60;;;;;;5054825;28;20481;-73
2023/06/20 11:46:28;;;;;;;5.80;4.78;;;31.90;9.40;;;;;;5052066;28;20431;-71
2023/06/20 11:48:57;;;;;;;6.10;5.37;;;31.90;9.70;;;;;;5051094;28;20521;-70
2023/06/20 11:51:25;;;;;;;11.57;5.63;;;31.60;10.00;;;;;;5051325;28;20385;-70
2023/06/20 11:54:07;;;;;;;5.32;4.82;;;31.60;10.20;;;;;;5031191;28;20407;-70
2023/06/20 11:56:32;;;;;;;8.17;4.80;;;31.70;8.80;;;;;;5030187;28;20780;-71
2023/06/20 11:58:58;;;;;;;4.93;4.43;;;31.80;8.70;;;;;;5031155;28;20407;-69
2023/06/20 12:01:25;;;;;;;5.47;4.73;;;31.80;9.10;;;;;;5030834;28;20387;-69
2023/06/20 12:04:12;;;;;;;5.03;4.63;;;31.80;9.20;;;;;;5031692;28;20437;-71
2023/06/20 12:06:44;;;;;;;8.52;4.72;;;31.90;8.80;;;;;;5031990;28;20415;-71
2023/06/20 12:09:16;;;;;;;8.70;4.80;;;32.00;9.10;;;;;;5044366;28;20594;-71
2023/06/20 12:11:55;;;;;;;4.80;4.30;;;32.00;8.70;;;;;;5052824;28;20397;-72
2023/06/20 12:14:22;;;;;;;4.80;4.40;;;32.20;8.80;;;;;;5054955;28;20417;-71
2023/06/20 12:16:51;;;;;;;5.65;4.18;;;32.10;8.50;;;;;;5054212;28;20586;-71
2023/06/20 12:19:19;;;;;;;4.30;4.00;;;32.30;8.30;;;;;;5048387;28;20836;-72
2023/06/20 12:21:45;;;;;;;4.10;3.80;;;32.70;7.30;;;;;;5051476;28;20396;-72
2023/06/20 12:24:11;;;;;;;7.80;4.55;;;33.00;6.80;;;;;;5051403;28;20847;-72
2023/06/20 12:26:37;;;;;;;5.13;4.63;;;33.10;6.40;;;;;;5051315;28;20402;-70
2023/06/20 12:29:03;;;;;;;5.33;4.10;;;33.00;6.20;;;;;;5052023;28;20393;-71
2023/06/20 12:31:29;;;;;;;4.55;4.07;;;32.60;6.40;;;;;;5057678;28;20809;-71
2023/06/20 12:33:54;;;;;;;6.07;4.80;;;32.50;6.90;;;;;;5058882;28;20423;-72
2023/06/20 12:36:20;;;;;;;4.40;4.10;;;32.40;7.40;;;;;;5052674;28;20388;-71
2023/06/20 12:38:46;;;;;;;5.07;4.57;;;32.70;6.90;;;;;;5052918;28;20405;-71
2023/06/20 12:41:11;;;;;;;4.50;4.10;;;32.80;6.40;;;;;;5053812;28;20480;-72
2023/06/20 12:43:37;;;;;;;4.28;3.97;;;33.00;6.60;;;;;;5056056;28;20488;-72